Diosdado Macapagal International Airport

RPLC

August 14, 2022

Time Code Weather Temp. Visibility Ceiling Wind METAR/SPECI
13:00
M
32 °C 6 km 10,000 ft 090° 090° 3 kt METAR RPLC 140500Z 09003KT 6000 SCT020 BKN100 32/24 Q1007 NOSIG RMK A2974
12:00
M
31 °C 6 km 10,000 ft 010° 010° 4 kt METAR RPLC 140400Z 01004KT 6000 SCT020 BKN100 31/24 Q1008 NOSIG RMK A2977
11:00
M
30 °C 6 km 10,000 ft 360° 360° 8 kt METAR RPLC 140300Z 36008KT 6000 FEW020 BKN100 30/25 Q1008 NOSIG RMK A2977
10:00
I
29 °C 4 km 30,000 ft 350° 350° 4 kt METAR RPLC 140200Z 35004KT 4000 HZ FEW020 BKN300 29/25 Q1009 NOSIG RMK A2980
09:00
I
28 °C 4 km 30,000 ft 320° 320° 6 kt METAR RPLC 140100Z 32006KT 4000 HZ FEW020 BKN300 28/25 Q1009 NOSIG RMK A2980
08:00
I
26 °C 4 km 10,000 ft 340° 340° 4 kt METAR RPLC 140000Z 34004KT 4000 HZ SCT020 BKN100 26/23 Q1008 NOSIG RMK A2977
07:00
I
25 °C 4 km 10,000 ft 360° 360° 2 kt METAR RPLC 132300Z 36002KT 4000 HZ SCT020 OVC100 25/23 Q1008 NOSIG RMK A2977
06:00
I
24 °C 4 km 10,000 ft 340° 340° 2 kt METAR RPLC 132200Z 34002KT 4000 HZ SCT020 OVC100 24/23 Q1008 NOSIG RMK A2977
05:00
V
25 °C 8 km 30,000 ft 270° 270° 2 kt METAR RPLC 132100Z 27002KT 8000 FEW020 BKN300 25/22 Q1008 NOSIG RMK A2977
04:00
V
24 °C 8 km 30,000 ft 180° 180° 2 kt METAR RPLC 132000Z 18002KT 8000 FEW020 BKN300 24/23 Q1008 NOSIG RMK A2977
03:00
V
26 °C 8 km 30,000 ft 180° 180° 6 kt METAR RPLC 131900Z 18006KT 8000 FEW020 BKN300 26/23 Q1008 NOSIG RMK A2977
02:00
V
24 °C 8 km 30,000 ft 340° 340° 2 kt METAR RPLC 131800Z 34002KT 8000 FEW020 BKN300 24/24 Q1008 NOSIG RMK A2977
01:00
V
24 °C 8 km 30,000 ft 360° 360° 1 kt METAR RPLC 131700Z 36001KT 8000 SCT020 BKN300 24/24 Q1009 NOSIG RMK A2980
00:00
V
25 °C 8 km 30,000 ft 360° 360° 1 kt METAR RPLC 131600Z 36001KT 8000 SCT020 BKN300 25/24 Q1009 NOSIG RMK A2980

August 13, 2022

Time Code Weather Temp. Visibility Ceiling Wind METAR/SPECI
23:00
V
25 °C 8 km 10,000 ft 030° 030° 1 kt METAR RPLC 131500Z 03001KT 8000 SCT020 BKN100 25/24 Q1010 RERA RMK A2983
22:00
M
25 °C 6 km 9,000 ft 020° 020° 2 kt METAR RPLC 131400Z 02002KT 6000 -RA SCT018 OVC090 25/24 Q1011 RMK A2985
21:00
M
25 °C 6 km 9,000 ft 020° 020° 4 kt METAR RPLC 131300Z 02004KT 6000 -RA SCT018 OVC090 25/24 Q1010 RMK A2980
20:00
M
25 °C 6 km 10,000 ft 360° 360° 2 kt METAR RPLC 131200Z 36002KT 6000 -RA FEW015CB SCT020 OVC100 25/24 Q1010 RMK A2980 CB NE-E
19:00
M
25 °C 6 km 10,000 ft 360° 360° 2 kt METAR RPLC 131100Z 36002KT 6000 SHRA FEW015CB SCT020 BKN100 25/24 Q1009 NOSIG RMK A2980 CB NE
18:00
M
28 °C 6 km 10,000 ft Var 000° 0 kt METAR RPLC 131000Z 32010K1T 6000 FEW015CB SCT020 BKN100 28/24 Q1008 NOSIG RMK A2977 CB N-E
17:00
V
30 °C 8 km 10,000 ft 220° 220° 8 kt METAR RPLC 130900Z 22008KT 8000 FEW015CB SCT020 BKN100 30/25 Q1008 NOSIG RMK A2977 CB N SW
16:00
V
31 °C 8 km 30,000 ft 180° 180° 8 kt METAR RPLC 130800Z 18008KT 8000 SCT020 BKN300 31/25 Q1007 NOSIG RMK A2974
15:00
V
32 °C 8 km 10,000 ft 120° 120° 6 kt METAR RPLC 130700Z 12006KT 8000 FEW015CB SCT020 BKN100 32/25 Q1007 NOSIG RMK A2974 CB S
14:00
V
34 °C 8 km 30,000 ft 340° 340° 6 kt METAR RPLC 130600Z 34006KT 8000 FEW015CB SCT020 BKN300 34/26 Q1008 NOSIG RMK A2980 CB SW
13:00
V
33 °C 8 km 10,000 ft 040° 040° 6 kt METAR RPLC 130500Z 04006KT 8000 TS FEW015CB SCT020 BKN100 33/25 Q1009 NOSIG RMK A2980 CB SW
12:00
V
33 °C 8 km 10,000 ft 020° 020° 8 kt METAR RPLC 130400Z 02008KT 8000 SCT020 BKN100 33/25 Q1010 NOSIG RMK A2983
11:00
V
31 °C 8 km 30,000 ft 020° 020° 6 kt METAR RPLC 130300Z 02006KT 8000 SCT020 BKN300 31/26 Q1010 NOSIG RMK A2983
10:00
M
29 °C 6 km 10,000 ft 360° 360° 2 kt METAR RPLC 130200Z 36002KT 36002 6000 SCT020 OVC100 29/25 Q1010 NOSIG RMK A2983
09:00
M
0 °C 6 km 10,000 ft 010° 010° 2 kt METAR RPLC 130100Z 01002KT 6000 SCT020 OVC100 29 24 Q1011 NOSIG RMK A2985
08:00
M
28 °C 6 km 10,000 ft 010° 010° 2 kt METAR RPLC 130000Z 01002KT 6000 SCT020 OVC100 28/24 Q1011 NOSIG RMK A2985
07:00
M
28 °C 6 km 10,000 ft 270° 270° 2 kt METAR RPLC 122300Z 27002KT 6000 SCT020 OVC100 28/24 Q1010 NOSIG RMK A2983
06:00
M
27 °C 6 km 10,000 ft 180° 180° 2 kt METAR RPLC 122200Z 18002KT 6000 SCT020 OVC100 27/23 Q1010 RERA RMK A2983
05:00
M
26 °C 7 km 10,000 ft 180° 180° 2 kt METAR RPLC 122100Z 18002KT 7000 -RA SCT020 OVC100 26/24 Q1010 NOSIG RMK A2983
04:00
M
27 °C 7 km 10,000 ft 320° 320° 2 kt METAR RPLC 122000Z 32002KT 7000 -RA SCT020 OVC100 27/24 Q1010 NOSIG RMK A2983
03:00
M
27 °C 7 km 10,000 ft 320° 320° 2 kt METAR RPLC 121900Z 32002KT 7000 -RA SCT020 OVC100 27/24 Q1010 NOSIG RMK A2983
02:00
M
26 °C 7 km 30,000 ft 250° 250° 2 kt METAR RPLC 121800Z 25002KT 7000 FEW020 BKN300 26/24 Q1010 NOSIG RMK A2983
01:00
M
26 °C 7 km 30,000 ft 200° 200° 2 kt METAR RPLC 121700Z 20002KT 7000 FEW020 BKN300 26/25 Q1011 NOSIG RMK A2985

August 12, 2022

Time Code Weather Temp. Visibility Ceiling Wind METAR/SPECI
23:00
M
27 °C 7 km 30,000 ft 200° 200° 2 kt METAR RPLC 121500Z 20002KT 7000 FEW020 BKN300 27/25 Q1011 NOSIG RMK A2985
22:00
M
27 °C 7 km 10,000 ft 320° 320° 2 kt METAR RPLC 121400Z 32002KT 7000 SCT020 BKN100 27/25 Q1011 RETSRA NOSIG RMK A2985
21:00
M
28 °C 7 km 10,000 ft 320° 320° 2 kt METAR RPLC 121300Z 32002KT 7000 TS FEW015CB SCT020 BKN100 28/24 Q1011 NOSIG RMK A2985 CB E/S
20:00
V
28 °C 8 km 10,000 ft 340° 340° 4 kt METAR RPLC 121200Z 34004KT 8000 FEW015CB SCT020 BKN100 28/25 Q1010 NOSIG RMK A2983 CB E
19:00
V
30 °C 8 km 10,000 ft 250° 250° 2 kt METAR RPLC 121100Z 25002KT 8000 SCT020 BKN100 30/24 Q1009 NOSIG RMK A2980
18:00
V
31 °C 8 km 10,000 ft 320° 320° 2 kt METAR RPLC 121000Z 32002KT 8000 SCT020 BKN100 31/25 Q1009 NOSIG RMK A2980
17:00
V
31 °C 8 km 10,000 ft 250° 250° 2 kt METAR RPLC 120900Z 25002KT 8000 SCT020 BKN100 31/26 Q1008 NOSIG RMK A2977
16:00
V
29 °C 8 km 10,000 ft 360° 360° 10 kt METAR RPLC 120800Z 36010KT 8000 SCT020 BKN100 29/25 Q1008 NOSIG RMK A2977
15:00
V
32 °C 8 km 10,000 ft 360° 360° 10 kt METAR RPLC 120700Z 36010KT 8000 FEW015CB SCT020 OVC100 32/26 Q1009 NOSIG RMK A2980 CB S
14:00
V
32 °C 8 km 10,000 ft 360° 360° 8 kt METAR RPLC 120600Z 36008KT 8000 SCT020 BKN100 32/25 Q1009 NOSIG RMK A2980
13:00
V
34 °C 8 km 10,000 ft 040° 040° 4 kt METAR RPLC 120500Z 04004KT 8000 SCT020 BKN100 34/26 Q1010 NOSIG RMK A2983
12:00
M
31 °C 7 km 10,000 ft 040° 040° 4 kt METAR RPLC 120400Z 04004KT 7000 SCT020 BKN100 31/25 Q1010 NOSIG RMK A2983
11:00
M
32 °C 7 km 30,000 ft 070° 070° 4 kt METAR RPLC 120300Z 07004KT 7000 SCT020 BKN300 32/25 Q1010 NOSIG RMK A2983
Older data

We and third parties follow your internet behavior on our website with cookies. If you continue, we assume you agree with our cookie policy. Learn more